Time;durP1;ratioP1;P1;durP2;ratioP2;P2;SDS_P1;SDS_P2;PMS_P1;PMS_P2;Temp;Humidity;BMP_temperature;BMP_pressure;BME280_temperature;BME280_humidity;BME280_pressure;Samples;Min_cycle;Max_cycle;Signal;HPM_P1;HPM_P2
2023/09/05 00:01:03;;;;;;;;;;;;;;;;;;5038441;28;20015;-76
2023/09/05 00:03:31;;;;;;;;;;;;;;;;;;5030359;28;19917;-76
2023/09/05 00:05:56;;;;;;;;;;;;;;;;;;5037862;28;19920;-76
2023/09/05 00:08:22;;;;;;;;;;;;;;;;;;5038896;28;20255;-76
2023/09/05 00:10:47;;;;;;;;;;;;;;;;;;5037783;28;19912;-76
2023/09/05 00:13:12;;;;;;;;;;;;;;;;;;5035014;28;19916;-76
2023/09/05 00:15:37;;;;;;;;;;;;;;;;;;5031548;28;19916;-76
2023/09/05 00:18:02;;;;;;;;;;;;;;;;;;5040471;28;20267;-76
2023/09/05 00:20:28;;;;;;;;;;;;;;;;;;5038811;28;20004;-77
2023/09/05 00:22:53;;;;;;;;;;;;;;;;;;5038531;28;19959;-74
2023/09/05 00:25:18;;;;;;;;;;;;;;;;;;5038809;28;19984;-76
2023/09/05 00:27:44;;;;;;;;;;;;;;;;;;5039530;28;19912;-75
2023/09/05 00:30:12;;;;;;;;;;;;;;;;;;5041294;28;19916;-74
2023/09/05 00:32:40;;;;;;;;;;;;;;;;;;5038051;28;20034;-75
2023/09/05 00:35:05;;;;;;;;;;;;;;;;;;5029488;28;19920;-74
2023/09/05 00:37:30;;;;;;;;;;;;;;;;;;5034369;28;19912;-75
2023/09/05 00:39:56;;;;;;;;;;;;;;;;;;5038282;28;21048;-74
2023/09/05 00:42:21;;;;;;;;;;;;;;;;;;5035323;28;19942;-75
2023/09/05 00:44:49;;;;;;;;;;;;;;;;;;5056578;28;19936;-74
2023/09/05 00:47:15;;;;;;;;;;;;;;;;;;5028529;28;19916;-74
2023/09/05 00:49:46;;;;;;;;;;;;;;;;;;5036691;28;20262;-76
2023/09/05 00:52:12;;;;;;;;;;;;;;;;;;5037626;28;19962;-74
2023/09/05 00:54:37;;;;;;;;;;;;;;;;;;5029781;28;19959;-75
2023/09/05 00:57:02;;;;;;;;;;;;;;;;;;5035575;28;19923;-75
2023/09/05 00:59:27;;;;;;;;;;;;;;;;;;5040236;28;19916;-76
2023/09/05 01:01:52;;;;;;;;;;;;;;;;;;5040773;28;19912;-75
2023/09/05 01:04:18;;;;;;;;;;;;;;;;;;5040896;28;20319;-74
2023/09/05 01:06:46;;;;;;;;;;;;;;;;;;5039154;28;19919;-75
2023/09/05 01:09:11;;;;;;;;;;;;;;;;;;5038714;28;20003;-75
2023/09/05 01:11:36;;;;;;;;;;;;;;;;;;5039775;28;20003;-75
2023/09/05 01:14:01;;;;;;;;;;;;;;;;;;5029158;28;20340;-74
2023/09/05 01:16:27;;;;;;;;;;;;;;;;;;5038884;28;19924;-78
2023/09/05 01:18:52;;;;;;;;;;;;;;;;;;5053467;28;20007;-77
2023/09/05 01:21:17;;;;;;;;;;;;;;;;;;5032964;28;19920;-74
2023/09/05 01:23:42;;;;;;;;;;;;;;;;;;5027040;28;19913;-76
2023/09/05 01:26:08;;;;;;;;;;;;;;;;;;5031718;28;19939;-74
2023/09/05 01:28:35;;;;;;;;;;;;;;;;;;5039314;28;19912;-75
2023/09/05 01:31:00;;;;;;;;;;;;;;;;;;5038500;28;19909;-74
2023/09/05 01:33:25;;;;;;;;;;;;;;;;;;5038220;28;19921;-74
2023/09/05 01:35:50;;;;;;;;;;;;;;;;;;5039642;28;19917;-74
2023/09/05 01:38:15;;;;;;;;;;;;;;;;;;5039229;28;19944;-74
2023/09/05 01:40:41;;;;;;;;;;;;;;;;;;5041055;28;20306;-76
2023/09/05 01:43:06;;;;;;;;;;;;;;;;;;5039580;28;19921;-76
2023/09/05 01:45:31;;;;;;;;;;;;;;;;;;5038901;28;19912;-76
2023/09/05 01:47:56;;;;;;;;;;;;;;;;;;5038798;28;19931;-75
2023/09/05 01:50:21;;;;;;;;;;;;;;;;;;5039593;28;19973;-77
2023/09/05 01:52:47;;;;;;;;;;;;;;;;;;5039147;28;19913;-75
2023/09/05 01:55:12;;;;;;;;;;;;;;;;;;5038828;28;19920;-75
2023/09/05 01:57:37;;;;;;;;;;;;;;;;;;5038031;28;20023;-75
2023/09/05 02:00:02;;;;;;;;;;;;;;;;;;5039952;28;19916;-75
2023/09/05 02:02:27;;;;;;;;;;;;;;;;;;5038499;28;19948;-76
2023/09/05 02:04:53;;;;;;;;;;;;;;;;;;5039362;28;19987;-75
2023/09/05 02:07:18;;;;;;;;;;;;;;;;;;5037800;28;19912;-78
2023/09/05 02:09:44;;;;;;;;;;;;;;;;;;5037477;28;19912;-75
2023/09/05 02:12:09;;;;;;;;;;;;;;;;;;5030398;28;19913;-74
2023/09/05 02:14:35;;;;;;;;;;;;;;;;;;5039442;28;19925;-75
2023/09/05 02:17:00;;;;;;;;;;;;;;;;;;5038806;28;19916;-75
2023/09/05 02:19:27;;;;;;;;;;;;;;;;;;5054370;28;20336;-74
2023/09/05 02:21:53;;;;;;;;;;;;;;;;;;5037052;28;19917;-75
2023/09/05 02:24:18;;;;;;;;;;;;;;;;;;5038937;28;20836;-75
2023/09/05 02:26:43;;;;;;;;;;;;;;;;;;5038667;28;20259;-75
2023/09/05 02:29:08;;;;;;;;;;;;;;;;;;5038359;28;19909;-75
2023/09/05 02:31:34;;;;;;;;;;;;;;;;;;5038076;28;20031;-75
2023/09/05 02:33:59;;;;;;;;;;;;;;;;;;5039260;28;19921;-76
2023/09/05 02:36:24;;;;;;;;;;;;;;;;;;5034057;28;19954;-74
2023/09/05 02:38:50;;;;;;;;;;;;;;;;;;5032235;28;19913;-76
2023/09/05 02:41:15;;;;;;;;;;;;;;;;;;5039438;28;19916;-76
2023/09/05 02:43:40;;;;;;;;;;;;;;;;;;5039403;28;20011;-74
2023/09/05 02:46:06;;;;;;;;;;;;;;;;;;5034125;28;19932;-74
2023/09/05 02:48:31;;;;;;;;;;;;;;;;;;5033944;28;19917;-77
2023/09/05 02:50:57;;;;;;;;;;;;;;;;;;5037642;28;19920;-77
2023/09/05 02:53:22;;;;;;;;;;;;;;;;;;5043629;28;19917;-76
2023/09/05 02:55:47;;;;;;;;;;;;;;;;;;5042625;28;20322;-76
2023/09/05 02:58:13;;;;;;;;;;;;;;;;;;5040922;28;19972;-76
2023/09/05 03:00:39;;;;;;;;;;;;;;;;;;5039580;28;20018;-74
2023/09/05 03:03:04;;;;;;;;;;;;;;;;;;5028258;28;20252;-75
2023/09/05 03:05:29;;;;;;;;;;;;;;;;;;5040383;28;19917;-74
2023/09/05 03:07:54;;;;;;;;;;;;;;;;;;5039926;28;19904;-75
2023/09/05 03:10:20;;;;;;;;;;;;;;;;;;5040024;28;19944;-74
2023/09/05 03:12:45;;;;;;;;;;;;;;;;;;5037650;28;19915;-74
2023/09/05 03:15:10;;;;;;;;;;;;;;;;;;5026367;28;19924;-75
2023/09/05 03:17:35;;;;;;;;;;;;;;;;;;5027667;28;19913;-74
2023/09/05 03:20:00;;;;;;;;;;;;;;;;;;5029140;28;19924;-75
2023/09/05 03:22:26;;;;;;;;;;;;;;;;;;5029615;28;21122;-74
2023/09/05 03:24:52;;;;;;;;;;;;;;;;;;5029086;28;20342;-74
2023/09/05 03:27:17;;;;;;;;;;;;;;;;;;5028352;28;19967;-76
2023/09/05 03:29:42;;;;;;;;;;;;;;;;;;5026653;28;19912;-74
2023/09/05 03:32:07;;;;;;;;;;;;;;;;;;5024817;28;20748;-75
2023/09/05 03:34:34;;;;;;;;;;;;;;;;;;5027233;28;19931;-74
2023/09/05 03:36:59;;;;;;;;;;;;;;;;;;5024115;28;19916;-75
2023/09/05 03:39:24;;;;;;;;;;;;;;;;;;5027637;28;19927;-76
2023/09/05 03:41:50;;;;;;;;;;;;;;;;;;5027708;28;19919;-75
2023/09/05 03:44:16;;;;;;;;;;;;;;;;;;5025281;28;19998;-75
2023/09/05 03:46:42;;;;;;;;;;;;;;;;;;5025875;28;19918;-76
2023/09/05 03:49:07;;;;;;;;;;;;;;;;;;5025628;28;19927;-75
2023/09/05 03:51:32;;;;;;;;;;;;;;;;;;5025156;28;19959;-75
2023/09/05 03:53:58;;;;;;;;;;;;;;;;;;5023947;28;19920;-75
2023/09/05 03:56:23;;;;;;;;;;;;;;;;;;5034846;28;19924;-75
2023/09/05 03:58:48;;;;;;;;;;;;;;;;;;5035776;28;19917;-74
2023/09/05 04:01:13;;;;;;;;;;;;;;;;;;5027352;28;19917;-75
2023/09/05 04:03:38;;;;;;;;;;;;;;;;;;5025325;28;19919;-75
2023/09/05 04:06:04;;;;;;;;;;;;;;;;;;5026977;28;19913;-74
2023/09/05 04:08:29;;;;;;;;;;;;;;;;;;5028435;28;20271;-74
2023/09/05 04:10:54;;;;;;;;;;;;;;;;;;5034606;28;19924;-75
2023/09/05 04:13:19;;;;;;;;;;;;;;;;;;5040318;28;20150;-76
2023/09/05 04:15:44;;;;;;;;;;;;;;;;;;5038983;28;20251;-74
2023/09/05 04:18:10;;;;;;;;;;;;;;;;;;5029367;28;19912;-75
2023/09/05 04:20:35;;;;;;;;;;;;;;;;;;5040287;28;19913;-75
2023/09/05 04:23:00;;;;;;;;;;;;;;;;;;5039347;28;19964;-79
2023/09/05 04:25:26;;;;;;;;;;;;;;;;;;5040664;28;21271;-81
2023/09/05 04:27:51;;;;;;;;;;;;;;;;;;5028073;28;19917;-81
2023/09/05 04:30:16;;;;;;;;;;;;;;;;;;5022575;28;20402;-81
2023/09/05 04:32:43;;;;;;;;;;;;;;;;;;5030783;28;20302;-80
2023/09/05 04:35:08;;;;;;;;;;;;;;;;;;5037020;28;19936;-77
2023/09/05 04:37:34;;;;;;;;;;;;;;;;;;5023263;28;19912;-77
2023/09/05 04:40:00;;;;;;;;;;;;;;;;;;5029396;28;20335;-77
2023/09/05 04:42:26;;;;;;;;;;;;;;;;;;5037809;28;19912;-79
2023/09/05 04:44:51;;;;;;;;;;;;;;;;;;5039428;28;20301;-79
2023/09/05 04:47:16;;;;;;;;;;;;;;;;;;5038466;28;19912;-81
2023/09/05 04:49:41;;;;;;;;;;;;;;;;;;5038971;28;19917;-79
2023/09/05 04:52:07;;;;;;;;;;;;;;;;;;5037926;28;19913;-81
2023/09/05 04:54:32;;;;;;;;;;;;;;;;;;5036306;28;19931;-80
2023/09/05 04:56:58;;;;;;;;;;;;;;;;;;5035472;28;20243;-74
2023/09/05 04:59:23;;;;;;;;;;;;;;;;;;5036991;28;19912;-74
2023/09/05 05:01:48;;;;;;;;;;;;;;;;;;5036734;28;19935;-73
2023/09/05 05:04:13;;;;;;;;;;;;;;;;;;5030082;28;19916;-75
2023/09/05 05:06:38;;;;;;;;;;;;;;;;;;5038263;28;19912;-76
2023/09/05 05:09:04;;;;;;;;;;;;;;;;;;5024366;28;19920;-77
2023/09/05 05:11:29;;;;;;;;;;;;;;;;;;5024758;28;19921;-76
2023/09/05 05:13:54;;;;;;;;;;;;;;;;;;5022377;28;20267;-76
2023/09/05 05:16:19;;;;;;;;;;;;;;;;;;5024367;28;20027;-79
2023/09/05 05:18:45;;;;;;;;;;;;;;;;;;5027325;28;19909;-78
2023/09/05 05:21:10;;;;;;;;;;;;;;;;;;5032051;28;19913;-77
2023/09/05 05:23:35;;;;;;;;;;;;;;;;;;5032075;28;19908;-77
2023/09/05 05:26:01;;;;;;;;;;;;;;;;;;5023254;28;19913;-78
2023/09/05 05:28:26;;;;;;;;;;;;;;;;;;5025562;28;20542;-78
2023/09/05 05:30:52;;;;;;;;;;;;;;;;;;5023212;28;20661;-76
2023/09/05 05:33:17;;;;;;;;;;;;;;;;;;5025090;28;20652;-77
2023/09/05 05:35:42;;;;;;;;;;;;;;;;;;5026578;28;19917;-76
2023/09/05 05:38:07;;;;;;;;;;;;;;;;;;5038316;28;19971;-76
2023/09/05 05:40:32;;;;;;;;;;;;;;;;;;5036719;28;19923;-76
2023/09/05 05:42:58;;;;;;;;;;;;;;;;;;5030140;28;20292;-76
2023/09/05 05:45:23;;;;;;;;;;;;;;;;;;5032552;28;19913;-76
2023/09/05 05:47:48;;;;;;;;;;;;;;;;;;5038740;28;19912;-76
2023/09/05 05:50:13;;;;;;;;;;;;;;;;;;5036623;28;19924;-77
2023/09/05 05:52:39;;;;;;;;;;;;;;;;;;5054340;28;19916;-76
2023/09/05 05:55:04;;;;;;;;;;;;;;;;;;5037453;28;19956;-75
2023/09/05 05:57:29;;;;;;;;;;;;;;;;;;5038163;28;19919;-76
2023/09/05 05:59:54;;;;;;;;;;;;;;;;;;5036378;28;20185;-77
2023/09/05 06:02:19;;;;;;;;;;;;;;;;;;5037528;28;19951;-76
2023/09/05 06:04:45;;;;;;;;;;;;;;;;;;5037276;28;20231;-77
2023/09/05 06:07:10;;;;;;;;;;;;;;;;;;5037919;28;19908;-77
2023/09/05 06:09:35;;;;;;;;;;;;;;;;;;5036158;28;19912;-77
2023/09/05 06:12:00;;;;;;;;;;;;;;;;;;5038425;28;20323;-77
2023/09/05 06:14:25;;;;;;;;;;;;;;;;;;5039215;28;19925;-75
2023/09/05 06:16:50;;;;;;;;;;;;;;;;;;5037666;28;19909;-76
2023/09/05 06:19:17;;;;;;;;;;;;;;;;;;5037111;28;19963;-76
2023/09/05 06:21:45;;;;;;;;;;;;;;;;;;5038339;28;20036;-76
2023/09/05 06:24:11;;;;;;;;;;;;;;;;;;5037121;28;20003;-76
2023/09/05 06:26:36;;;;;;;;;;;;;;;;;;5038550;28;20003;-76
2023/09/05 06:29:01;;;;;;;;;;;;;;;;;;5043337;28;19924;-76
2023/09/05 06:31:26;;;;;;;;;;;;;;;;;;5042318;28;19909;-75
2023/09/05 06:33:51;;;;;;;;;;;;;;;;;;5042576;28;19931;-76
2023/09/05 06:36:17;;;;;;;;;;;;;;;;;;5043124;28;19904;-77
2023/09/05 06:38:42;;;;;;;;;;;;;;;;;;5041925;28;19975;-77
2023/09/05 06:41:07;;;;;;;;;;;;;;;;;;5040608;28;19916;-77
2023/09/05 06:43:32;;;;;;;;;;;;;;;;;;5041564;28;19927;-77
2023/09/05 06:45:57;;;;;;;;;;;;;;;;;;5037991;28;19924;-76
2023/09/05 06:48:22;;;;;;;;;;;;;;;;;;5042506;28;19924;-77
2023/09/05 06:50:48;;;;;;;;;;;;;;;;;;5039931;28;20288;-76
2023/09/05 06:53:13;;;;;;;;;;;;;;;;;;5042357;28;19912;-76
2023/09/05 06:55:38;;;;;;;;;;;;;;;;;;5039913;28;19913;-75
2023/09/05 06:58:04;;;;;;;;;;;;;;;;;;5042137;28;19917;-76
2023/09/05 07:00:30;;;;;;;;;;;;;;;;;;5043040;28;19913;-76
2023/09/05 07:02:55;;;;;;;;;;;;;;;;;;5042985;28;19923;-76
2023/09/05 07:05:21;;;;;;;;;;;;;;;;;;5040117;28;19909;-77
2023/09/05 07:07:46;;;;;;;;;;;;;;;;;;5040302;28;19916;-78
2023/09/05 07:10:13;;;;;;;;;;;;;;;;;;5056277;28;19913;-76
2023/09/05 07:12:38;;;;;;;;;;;;;;;;;;5042768;28;19952;-76
2023/09/05 07:15:03;;;;;;;;;;;;;;;;;;5040358;28;20350;-76
2023/09/05 07:17:28;;;;;;;;;;;;;;;;;;5042456;28;19923;-77
2023/09/05 07:19:53;;;;;;;;;;;;;;;;;;5038960;28;19913;-76
2023/09/05 07:22:20;;;;;;;;;;;;;;;;;;5039259;28;20007;-76
2023/09/05 07:24:45;;;;;;;;;;;;;;;;;;5039605;28;19940;-78
2023/09/05 07:27:11;;;;;;;;;;;;;;;;;;5042512;28;20351;-77
2023/09/05 07:29:36;;;;;;;;;;;;;;;;;;5038781;28;19913;-78
2023/09/05 07:32:02;;;;;;;;;;;;;;;;;;5041210;28;19912;-77
2023/09/05 07:34:27;;;;;;;;;;;;;;;;;;5040722;28;20503;-76
2023/09/05 07:36:54;;;;;;;;;;;;;;;;;;5041603;28;19913;-76
2023/09/05 07:39:20;;;;;;;;;;;;;;;;;;5041486;28;19919;-75
2023/09/05 07:41:46;;;;;;;;;;;;;;;;;;5040109;28;19913;-76
2023/09/05 07:44:11;;;;;;;;;;;;;;;;;;5040620;28;19978;-76
2023/09/05 07:46:37;;;;;;;;;;;;;;;;;;5039191;28;21008;-77
2023/09/05 07:49:03;;;;;;;;;;;;;;;;;;5038950;28;19925;-76
2023/09/05 07:51:29;;;;;;;;;;;;;;;;;;5040640;28;19916;-77
2023/09/05 07:53:54;;;;;;;;;;;;;;;;;;5040059;28;19931;-76
2023/09/05 07:56:20;;;;;;;;;;;;;;;;;;5039370;28;19948;-77
2023/09/05 07:58:45;;;;;;;;;;;;;;;;;;5040892;28;20346;-78
2023/09/05 08:01:10;;;;;;;;;;;;;;;;;;5040663;28;19912;-76
2023/09/05 08:03:35;;;;;;;;;;;;;;;;;;5042120;28;19912;-78
2023/09/05 08:06:00;;;;;;;;;;;;;;;;;;5042268;28;19909;-76
2023/09/05 08:08:26;;;;;;;;;;;;;;;;;;5037573;28;20027;-76
2023/09/05 08:10:51;;;;;;;;;;;;;;;;;;5057168;28;20331;-78
2023/09/05 08:13:16;;;;;;;;;;;;;;;;;;5038904;28;19908;-77
2023/09/05 08:15:43;;;;;;;;;;;;;;;;;;5039983;28;20302;-75
2023/09/05 08:18:08;;;;;;;;;;;;;;;;;;5040946;28;20035;-76
2023/09/05 08:20:35;;;;;;;;;;;;;;;;;;5038852;28;20008;-77
2023/09/05 08:23:01;;;;;;;;;;;;;;;;;;5039665;28;19919;-76
2023/09/05 08:25:26;;;;;;;;;;;;;;;;;;5038695;28;20059;-78
2023/09/05 08:27:53;;;;;;;;;;;;;;;;;;5040970;28;19928;-76
2023/09/05 08:30:18;;;;;;;;;;;;;;;;;;5038609;28;20243;-77
2023/09/05 08:32:44;;;;;;;;;;;;;;;;;;5038948;28;19938;-77
2023/09/05 08:35:09;;;;;;;;;;;;;;;;;;5039009;28;20047;-76
2023/09/05 08:37:34;;;;;;;;;;;;;;;;;;5039347;28;19920;-77
2023/09/05 08:39:59;;;;;;;;;;;;;;;;;;5037765;28;19912;-76
2023/09/05 08:42:25;;;;;;;;;;;;;;;;;;5038605;28;19912;-77
2023/09/05 08:44:50;;;;;;;;;;;;;;;;;;5039611;28;19955;-77
2023/09/05 08:47:15;;;;;;;;;;;;;;;;;;5036204;28;20324;-76
2023/09/05 08:49:40;;;;;;;;;;;;;;;;;;5039467;28;19920;-76
2023/09/05 08:52:06;;;;;;;;;;;;;;;;;;5038784;28;19952;-76
2023/09/05 08:54:31;;;;;;;;;;;;;;;;;;5040067;28;20306;-77
2023/09/05 08:56:56;;;;;;;;;;;;;;;;;;5038558;28;19912;-76
2023/09/05 08:59:21;;;;;;;;;;;;;;;;;;5038860;28;19916;-77
2023/09/05 09:01:46;;;;;;;;;;;;;;;;;;5040785;28;19908;-75
2023/09/05 09:04:13;;;;;;;;;;;;;;;;;;5038688;28;19913;-75
2023/09/05 09:06:38;;;;;;;;;;;;;;;;;;5038971;28;19921;-76
2023/09/05 09:09:03;;;;;;;;;;;;;;;;;;5039488;28;19919;-77
2023/09/05 09:11:29;;;;;;;;;;;;;;;;;;5038904;28;20378;-77
2023/09/05 09:13:54;;;;;;;;;;;;;;;;;;5038012;28;19921;-78
2023/09/05 09:16:19;;;;;;;;;;;;;;;;;;5036060;28;19913;-75
2023/09/05 09:18:44;;;;;;;;;;;;;;;;;;5038425;28;20015;-76
2023/09/05 09:21:09;;;;;;;;;;;;;;;;;;5038991;28;20376;-76
2023/09/05 09:23:35;;;;;;;;;;;;;;;;;;5038631;28;19947;-76
2023/09/05 09:26:00;;;;;;;;;;;;;;;;;;5038977;28;19913;-75
2023/09/05 09:28:43;;;;;;;;;;;;;;;;;;5040366;28;19908;-76
2023/09/05 09:31:11;;;;;;;;;;;;;;;;;;5036687;28;20375;-76
2023/09/05 09:33:36;;;;;;;;;;;;;;;;;;5037431;28;19916;-77
2023/09/05 09:36:01;;;;;;;;;;;;;;;;;;5037316;28;19913;-77
2023/09/05 09:38:27;;;;;;;;;;;;;;;;;;5039217;28;19912;-76
2023/09/05 09:40:52;;;;;;;;;;;;;;;;;;5040829;28;20605;-76
2023/09/05 09:43:17;;;;;;;;;;;;;;;;;;5036978;28;19916;-76
2023/09/05 09:45:42;;;;;;;;;;;;;;;;;;5037942;28;19954;-76
2023/09/05 09:48:07;;;;;;;;;;;;;;;;;;5038128;28;20256;-77
2023/09/05 09:50:32;;;;;;;;;;;;;;;;;;5035399;28;19927;-77
2023/09/05 09:52:58;;;;;;;;;;;;;;;;;;5038362;28;19912;-77
2023/09/05 09:55:23;;;;;;;;;;;;;;;;;;5037932;28;19917;-79
2023/09/05 09:57:48;;;;;;;;;;;;;;;;;;5036751;28;20409;-77
2023/09/05 10:00:18;;;;;;;;;;;;;;;;;;5039143;28;20249;-77
2023/09/05 10:02:44;;;;;;;;;;;;;;;;;;5036860;28;19917;-77
2023/09/05 10:05:09;;;;;;;;;;;;;;;;;;5037630;28;20082;-77
2023/09/05 10:07:34;;;;;;;;;;;;;;;;;;5038660;28;20006;-77
2023/09/05 10:09:59;;;;;;;;;;;;;;;;;;5037318;28;19925;-77
2023/09/05 10:12:24;;;;;;;;;;;;;;;;;;5038412;28;19912;-77
2023/09/05 10:14:49;;;;;;;;;;;;;;;;;;5036675;28;20053;-77
2023/09/05 10:17:15;;;;;;;;;;;;;;;;;;5037847;28;19913;-78
2023/09/05 10:19:40;;;;;;;;;;;;;;;;;;5038876;28;20062;-78
2023/09/05 10:22:05;;;;;;;;;;;;;;;;;;5037067;28;20255;-77
2023/09/05 10:24:30;;;;;;;;;;;;;;;;;;5039107;28;19923;-77
2023/09/05 10:26:55;;;;;;;;;;;;;;;;;;5039540;28;19958;-78
2023/09/05 10:29:21;;;;;;;;;;;;;;;;;;5037836;28;19974;-77
2023/09/05 10:31:46;;;;;;;;;;;;;;;;;;5036820;28;19908;-76
2023/09/05 10:34:11;;;;;;;;;;;;;;;;;;5038197;28;19920;-78
2023/09/05 10:36:36;;;;;;;;;;;;;;;;;;5038517;28;19908;-77
2023/09/05 10:39:02;;;;;;;;;;;;;;;;;;5038001;28;19909;-77
2023/09/05 10:41:27;;;;;;;;;;;;;;;;;;5037541;28;19905;-76
2023/09/05 10:43:52;;;;;;;;;;;;;;;;;;5038176;28;19917;-77
2023/09/05 10:46:18;;;;;;;;;;;;;;;;;;5055980;28;20351;-78
2023/09/05 10:48:45;;;;;;;;;;;;;;;;;;5038306;28;19931;-76
2023/09/05 10:51:10;;;;;;;;;;;;;;;;;;5036578;28;20354;-76
2023/09/05 10:53:36;;;;;;;;;;;;;;;;;;5039034;28;19921;-77
2023/09/05 10:56:01;;;;;;;;;;;;;;;;;;5037372;28;19909;-78
2023/09/05 10:58:26;;;;;;;;;;;;;;;;;;5037475;28;19944;-78
2023/09/05 11:00:51;;;;;;;;;;;;;;;;;;5038184;28;20033;-78
2023/09/05 11:03:17;;;;;;;;;;;;;;;;;;5038415;28;20012;-78
2023/09/05 11:05:42;;;;;;;;;;;;;;;;;;5054995;28;19912;-77
2023/09/05 11:08:07;;;;;;;;;;;;;;;;;;5037930;28;19959;-77
2023/09/05 11:10:33;;;;;;;;;;;;;;;;;;5037817;28;20322;-78
2023/09/05 11:12:58;;;;;;;;;;;;;;;;;;5038937;28;19917;-78
2023/09/05 11:15:23;;;;;;;;;;;;;;;;;;5040230;28;19960;-78
2023/09/05 11:17:49;;;;;;;;;;;;;;;;;;5040775;28;19917;-77
2023/09/05 11:20:15;;;;;;;;;;;;;;;;;;5040242;28;19925;-77
2023/09/05 11:22:40;;;;;;;;;;;;;;;;;;5041337;28;20003;-79
2023/09/05 11:25:08;;;;;;;;;;;;;;;;;;5042594;28;20328;-78
2023/09/05 11:27:33;;;;;;;;;;;;;;;;;;5040128;28;19927;-78
2023/09/05 11:29:59;;;;;;;;;;;;;;;;;;5041501;28;19913;-78
2023/09/05 11:32:24;;;;;;;;;;;;;;;;;;5036561;28;20205;-77
2023/09/05 11:34:49;;;;;;;;;;;;;;;;;;5038913;28;19924;-81
2023/09/05 11:37:14;;;;;;;;;;;;;;;;;;5024771;28;19991;-79
2023/09/05 11:39:39;;;;;;;;;;;;;;;;;;5030877;28;19913;-80
2023/09/05 11:42:05;;;;;;;;;;;;;;;;;;5028142;28;19981;-79
2023/09/05 11:44:30;;;;;;;;;;;;;;;;;;5029088;28;20247;-77
2023/09/05 11:46:55;;;;;;;;;;;;;;;;;;5028303;28;19924;-80
2023/09/05 11:49:20;;;;;;;;;;;;;;;;;;5028378;28;19921;-78
2023/09/05 11:51:45;;;;;;;;;;;;;;;;;;5025683;28;19912;-79
2023/09/05 11:54:10;;;;;;;;;;;;;;;;;;5031640;28;19920;-78
2023/09/05 11:56:36;;;;;;;;;;;;;;;;;;5035647;28;20344;-78
2023/09/05 11:59:01;;;;;;;;;;;;;;;;;;5039132;28;19917;-78
2023/09/05 12:01:26;;;;;;;;;;;;;;;;;;5039366;28;19960;-78
2023/09/05 12:03:51;;;;;;;;;;;;;;;;;;5038418;28;19943;-76
2023/09/05 12:06:17;;;;;;;;;;;;;;;;;;5041534;28;20328;-78
2023/09/05 12:08:42;;;;;;;;;;;;;;;;;;5038933;28;19913;-77
2023/09/05 12:11:07;;;;;;;;;;;;;;;;;;5038607;28;19916;-77
2023/09/05 12:13:33;;;;;;;;;;;;;;;;;;5053643;28;20402;-79
2023/09/05 12:15:59;;;;;;;;;;;;;;;;;;5038662;28;19913;-78
2023/09/05 12:18:24;;;;;;;;;;;;;;;;;;5038499;28;19919;-78
2023/09/05 12:20:49;;;;;;;;;;;;;;;;;;5037472;28;20231;-77
2023/09/05 12:23:15;;;;;;;;;;;;;;;;;;5041054;28;19999;-78
2023/09/05 12:25:40;;;;;;;;;;;;;;;;;;5037453;28;19912;-78
2023/09/05 12:28:05;;;;;;;;;;;;;;;;;;5039992;28;19912;-78
2023/09/05 12:30:31;;;;;;;;;;;;;;;;;;5056118;28;20327;-77
2023/09/05 12:32:56;;;;;;;;;;;;;;;;;;5041338;28;19905;-78
2023/09/05 12:35:21;;;;;;;;;;;;;;;;;;5040176;28;19916;-77
2023/09/05 12:37:46;;;;;;;;;;;;;;;;;;5037871;28;19908;-78
2023/09/05 12:40:11;;;;;;;;;;;;;;;;;;5037389;28;19908;-76
2023/09/05 12:42:36;;;;;;;;;;;;;;;;;;5038713;28;19923;-78
2023/09/05 12:45:02;;;;;;;;;;;;;;;;;;5038220;28;19919;-78
2023/09/05 12:47:27;;;;;;;;;;;;;;;;;;5039083;28;19924;-77
2023/09/05 12:49:53;;;;;;;;;;;;;;;;;;5039743;28;20277;-78
2023/09/05 12:52:21;;;;;;;;;;;;;;;;;;5039330;28;20023;-77
2023/09/05 12:54:48;;;;;;;;;;;;;;;;;;5038694;28;19920;-77
2023/09/05 12:57:13;;;;;;;;;;;;;;;;;;5039751;28;19912;-76
2023/09/05 12:59:38;;;;;;;;;;;;;;;;;;5040826;28;20374;-79
2023/09/05 13:02:03;;;;;;;;;;;;;;;;;;5035990;28;19921;-79
2023/09/05 13:04:29;;;;;;;;;;;;;;;;;;5025694;28;20015;-76
2023/09/05 13:06:55;;;;;;;;;;;;;;;;;;5030938;28;19928;-79
2023/09/05 13:09:20;;;;;;;;;;;;;;;;;;5032517;28;20235;-75
2023/09/05 13:11:47;;;;;;;;;;;;;;;;;;5025838;28;19917;-78
2023/09/05 13:14:12;;;;;;;;;;;;;;;;;;5025678;28;19974;-77
2023/09/05 13:16:38;;;;;;;;;;;;;;;;;;5024071;28;19917;-77
2023/09/05 13:19:03;;;;;;;;;;;;;;;;;;5041429;28;20449;-77
2023/09/05 13:21:29;;;;;;;;;;;;;;;;;;5023470;28;20375;-77
2023/09/05 13:23:55;;;;;;;;;;;;;;;;;;5019984;28;19932;-80
2023/09/05 13:26:20;;;;;;;;;;;;;;;;;;5026781;28;20233;-83
2023/09/05 13:28:45;;;;;;;;;;;;;;;;;;5028307;28;19919;-86
2023/09/05 13:31:10;;;;;;;;;;;;;;;;;;5027983;28;19921;-79
2023/09/05 13:33:36;;;;;;;;;;;;;;;;;;5042063;28;19913;-76
2023/09/05 13:36:01;;;;;;;;;;;;;;;;;;5036978;28;19920;-76
2023/09/05 13:38:26;;;;;;;;;;;;;;;;;;5040014;28;20378;-79
2023/09/05 13:40:51;;;;;;;;;;;;;;;;;;5039657;28;19994;-78
2023/09/05 13:43:16;;;;;;;;;;;;;;;;;;5033726;28;20624;-78
2023/09/05 13:45:41;;;;;;;;;;;;;;;;;;5033387;28;19917;-77
2023/09/05 13:48:07;;;;;;;;;;;;;;;;;;5025402;28;20019;-81
2023/09/05 13:50:32;;;;;;;;;;;;;;;;;;5050956;28;20343;-81
2023/09/05 13:52:57;;;;;;;;;;;;;;;;;;5039923;28;19999;-83
2023/09/05 13:55:22;;;;;;;;;;;;;;;;;;5035361;28;19929;-78
2023/09/05 13:57:49;;;;;;;;;;;;;;;;;;5025347;28;19920;-80
2023/09/05 14:00:14;;;;;;;;;;;;;;;;;;5022800;28;19915;-77
2023/09/05 14:02:40;;;;;;;;;;;;;;;;;;5022993;28;19909;-76
2023/09/05 14:05:05;;;;;;;;;;;;;;;;;;5023588;28;20593;-77
2023/09/05 14:07:30;;;;;;;;;;;;;;;;;;5025163;28;19947;-79
2023/09/05 14:09:56;;;;;;;;;;;;;;;;;;5022835;28;19962;-76
2023/09/05 14:12:21;;;;;;;;;;;;;;;;;;5024168;28;20347;-75
2023/09/05 14:14:46;;;;;;;;;;;;;;;;;;5024490;28;19925;-77
2023/09/05 14:17:12;;;;;;;;;;;;;;;;;;5025903;28;19974;-76
2023/09/05 14:19:37;;;;;;;;;;;;;;;;;;5025817;28;19936;-77
2023/09/05 14:22:03;;;;;;;;;;;;;;;;;;5027427;28;20031;-76
2023/09/05 14:24:28;;;;;;;;;;;;;;;;;;5023333;28;19920;-77
2023/09/05 14:26:53;;;;;;;;;;;;;;;;;;5026424;28;19909;-76
2023/09/05 14:29:18;;;;;;;;;;;;;;;;;;5026802;28;19919;-76
2023/09/05 14:31:43;;;;;;;;;;;;;;;;;;5024860;28;19917;-78
2023/09/05 14:34:09;;;;;;;;;;;;;;;;;;5023967;28;19921;-78
2023/09/05 14:36:34;;;;;;;;;;;;;;;;;;5024680;28;19912;-76
2023/09/05 14:38:59;;;;;;;;;;;;;;;;;;5025591;28;19913;-76
2023/09/05 14:41:30;;;;;;;;;;;;;;;;;;5022289;28;19913;-75
2023/09/05 14:43:55;;;;;;;;;;;;;;;;;;5021329;28;19923;-76
2023/09/05 14:46:20;;;;;;;;;;;;;;;;;;5021250;28;19913;-76
2023/09/05 14:48:46;;;;;;;;;;;;;;;;;;5027810;28;19920;-77
2023/09/05 14:51:11;;;;;;;;;;;;;;;;;;5028761;28;19964;-77
2023/09/05 14:53:36;;;;;;;;;;;;;;;;;;5027744;28;19909;-76
2023/09/05 14:56:02;;;;;;;;;;;;;;;;;;5027675;28;19913;-77
2023/09/05 14:58:27;;;;;;;;;;;;;;;;;;5029879;28;19919;-78
2023/09/05 15:00:52;;;;;;;;;;;;;;;;;;5028242;28;19916;-77
2023/09/05 15:03:17;;;;;;;;;;;;;;;;;;5028941;28;19909;-76
2023/09/05 15:05:42;;;;;;;;;;;;;;;;;;5033621;28;19916;-78
2023/09/05 15:08:08;;;;;;;;;;;;;;;;;;5026195;28;20414;-78
2023/09/05 15:10:33;;;;;;;;;;;;;;;;;;5027346;28;19912;-77
2023/09/05 15:12:58;;;;;;;;;;;;;;;;;;5027498;28;20379;-77
2023/09/05 15:15:23;;;;;;;;;;;;;;;;;;5026548;28;19920;-76
2023/09/05 15:17:51;;;;;;;;;;;;;;;;;;5027660;28;20366;-81
2023/09/05 15:20:16;;;;;;;;;;;;;;;;;;5029802;28;20324;-79
2023/09/05 15:22:41;;;;;;;;;;;;;;;;;;5041898;28;19920;-79
2023/09/05 15:25:08;;;;;;;;;;;;;;;;;;5021310;28;19992;-76
2023/09/05 15:27:33;;;;;;;;;;;;;;;;;;5027264;28;20362;-75
2023/09/05 15:29:58;;;;;;;;;;;;;;;;;;5028854;28;19916;-75
2023/09/05 15:32:23;;;;;;;;;;;;;;;;;;5028266;28;19916;-75
2023/09/05 15:34:48;;;;;;;;;;;;;;;;;;5027418;28;20545;-75
2023/09/05 15:37:13;;;;;;;;;;;;;;;;;;5027070;28;19912;-75
2023/09/05 15:39:40;;;;;;;;;;;;;;;;;;5042621;28;19912;-75
2023/09/05 15:42:05;;;;;;;;;;;;;;;;;;5029281;28;19912;-75
2023/09/05 15:44:31;;;;;;;;;;;;;;;;;;5029001;28;20420;-75
2023/09/05 15:46:57;;;;;;;;;;;;;;;;;;5030954;28;19909;-75
2023/09/05 15:49:22;;;;;;;;;;;;;;;;;;5028173;28;20362;-76
2023/09/05 15:51:47;;;;;;;;;;;;;;;;;;5026751;28;19984;-74
2023/09/05 15:54:12;;;;;;;;;;;;;;;;;;5027353;28;19920;-75
2023/09/05 15:56:38;;;;;;;;;;;;;;;;;;5025542;28;20365;-76
2023/09/05 15:59:03;;;;;;;;;;;;;;;;;;5025798;28;19924;-75
2023/09/05 16:01:28;;;;;;;;;;;;;;;;;;5029176;28;19946;-76
2023/09/05 16:03:54;;;;;;;;;;;;;;;;;;5027281;28;20735;-78
2023/09/05 16:06:19;;;;;;;;;;;;;;;;;;5028146;28;19913;-76
2023/09/05 16:08:45;;;;;;;;;;;;;;;;;;5026520;28;19915;-76
2023/09/05 16:11:10;;;;;;;;;;;;;;;;;;5027082;28;19912;-77
2023/09/05 16:13:36;;;;;;;;;;;;;;;;;;5026995;28;19928;-76
2023/09/05 16:16:01;;;;;;;;;;;;;;;;;;5027317;28;19999;-76
2023/09/05 16:18:26;;;;;;;;;;;;;;;;;;5042050;28;19966;-77
2023/09/05 16:20:52;;;;;;;;;;;;;;;;;;5026959;28;19999;-77
2023/09/05 16:23:17;;;;;;;;;;;;;;;;;;5024603;28;19917;-77
2023/09/05 16:25:42;;;;;;;;;;;;;;;;;;5027184;28;19917;-77
2023/09/05 16:28:07;;;;;;;;;;;;;;;;;;5010027;28;20055;-77
2023/09/05 16:30:33;;;;;;;;;;;;;;;;;;5027663;28;19920;-78
2023/09/05 16:32:58;;;;;;;;;;;;;;;;;;5038073;28;19909;-77